createdAt,value
2023-02-26T00:00:53.816Z,99.99
2023-02-26T00:01:53.833Z,99.99
2023-02-26T00:02:53.875Z,99.99
2023-02-26T00:03:53.781Z,99.99
2023-02-26T00:04:53.762Z,99.99
2023-02-26T00:05:53.744Z,99.99
2023-02-26T00:06:54.725Z,99.99
2023-02-26T00:07:53.742Z,99.99
2023-02-26T00:08:53.797Z,99.99
2023-02-26T00:09:53.704Z,99.99
2023-02-26T00:10:53.692Z,99.99
2023-02-26T00:11:53.693Z,99.99
2023-02-26T00:12:53.785Z,99.99
2023-02-26T00:13:53.660Z,99.99
2023-02-26T00:14:53.693Z,99.99
2023-02-26T00:15:53.649Z,99.99
2023-02-26T00:16:53.668Z,99.99
2023-02-26T00:17:53.630Z,99.99
2023-02-26T00:18:53.622Z,99.99
2023-02-26T00:19:53.600Z,99.99
2023-02-26T00:20:53.635Z,99.99
2023-02-26T00:21:53.579Z,99.99
2023-02-26T00:22:53.566Z,99.99
2023-02-26T00:23:53.580Z,98.00
2023-02-26T00:24:53.568Z,97.53
2023-02-26T00:25:53.539Z,97.79
2023-02-26T00:26:53.597Z,96.91
2023-02-26T00:27:53.520Z,94.38
2023-02-26T00:28:53.501Z,93.15
2023-02-26T00:29:53.520Z,93.26
2023-02-26T00:30:53.553Z,92.06
2023-02-26T00:31:53.619Z,92.27
2023-02-26T00:32:53.513Z,92.69
2023-02-26T00:33:53.452Z,93.32
2023-02-26T00:34:53.441Z,92.96
2023-02-26T00:35:53.446Z,95.22
2023-02-26T00:36:53.420Z,95.11
2023-02-26T00:37:53.419Z,95.22
2023-02-26T00:38:53.462Z,95.11
2023-02-26T00:39:53.412Z,95.49
2023-02-26T00:40:53.422Z,93.74
2023-02-26T00:41:53.368Z,93.32
2023-02-26T00:42:53.358Z,92.27
2023-02-26T00:43:53.345Z,92.38
2023-02-26T00:44:53.402Z,93.07
2023-02-26T00:45:53.369Z,93.53
2023-02-26T00:46:53.344Z,93.60
2023-02-26T00:47:53.307Z,93.60
2023-02-26T00:48:53.293Z,94.12
2023-02-26T00:49:53.282Z,94.65
2023-02-26T00:50:53.322Z,94.12
2023-02-26T00:51:53.273Z,93.28
2023-02-26T00:52:53.269Z,92.23
2023-02-26T00:53:53.246Z,90.55
2023-02-26T00:54:53.245Z,90.58
2023-02-26T00:55:53.233Z,89.91
2023-02-26T00:56:53.234Z,88.79
2023-02-26T00:57:53.207Z,88.69
2023-02-26T00:58:53.192Z,88.12
2023-02-26T00:59:53.181Z,86.90
2023-02-26T01:00:53.185Z,86.33
2023-02-26T01:01:53.161Z,87.32
2023-02-26T01:02:53.160Z,87.18
2023-02-26T01:03:53.172Z,87.21
2023-02-26T01:04:53.126Z,85.00
2023-02-26T01:05:53.116Z,84.47
2023-02-26T01:06:53.129Z,85.21
2023-02-26T01:07:53.093Z,86.58
2023-02-26T01:08:53.100Z,88.90
2023-02-26T01:09:53.071Z,87.53
2023-02-26T01:10:53.064Z,88.33
2023-02-26T01:11:53.064Z,85.42
2023-02-26T01:12:53.083Z,83.42
2023-02-26T01:13:53.030Z,81.74
2023-02-26T01:14:53.046Z,81.52
2023-02-26T01:15:53.099Z,82.43
2023-02-26T01:16:52.999Z,81.10
2023-02-26T01:17:53.021Z,81.21
2023-02-26T01:18:52.997Z,83.63
2023-02-26T01:19:52.977Z,83.95
2023-02-26T01:20:52.980Z,84.16
2023-02-26T01:21:52.945Z,84.16
2023-02-26T01:22:52.936Z,84.89
2023-02-26T01:23:52.942Z,84.47
2023-02-26T01:24:52.918Z,85.74
2023-02-26T01:25:52.921Z,85.85
2023-02-26T01:26:52.913Z,84.27
2023-02-26T01:27:52.894Z,85.00
2023-02-26T01:28:52.911Z,84.96
2023-02-26T01:29:52.905Z,85.95
2023-02-26T01:30:53.000Z,85.74
2023-02-26T01:31:53.054Z,85.85
2023-02-26T01:32:52.831Z,85.31
2023-02-26T01:33:52.822Z,89.74
2023-02-26T01:34:52.812Z,91.78
2023-02-26T01:35:52.828Z,93.41
2023-02-26T01:36:52.790Z,93.19
2023-02-26T01:37:52.791Z,93.47
2023-02-26T01:38:52.784Z,93.68
2023-02-26T01:39:52.757Z,93.99
2023-02-26T01:40:52.765Z,94.57
2023-02-26T01:41:52.757Z,94.57
2023-02-26T01:42:52.728Z,94.46
2023-02-26T01:43:52.719Z,95.31
2023-02-26T01:44:52.728Z,95.31
2023-02-26T01:45:52.704Z,95.35
2023-02-26T01:46:52.741Z,95.35
2023-02-26T01:47:52.753Z,95.20
2023-02-26T01:48:52.670Z,95.94
2023-02-26T01:49:52.654Z,95.62
2023-02-26T01:50:52.650Z,95.31
2023-02-26T01:51:52.634Z,95.31
2023-02-26T01:52:52.637Z,95.24
2023-02-26T01:53:52.621Z,95.24
2023-02-26T01:54:52.607Z,95.24
2023-02-26T01:55:52.590Z,95.98
2023-02-26T01:56:52.585Z,95.56
2023-02-26T01:57:52.576Z,95.45
2023-02-26T01:58:52.581Z,95.14
2023-02-26T01:59:52.557Z,95.35
2023-02-26T02:00:52.571Z,95.50
2023-02-26T02:01:52.528Z,95.71
2023-02-26T02:02:52.638Z,95.81
2023-02-26T02:03:52.506Z,95.29
2023-02-26T02:04:52.521Z,95.60
2023-02-26T02:05:52.602Z,95.29
2023-02-26T02:06:52.484Z,94.86
2023-02-26T02:07:52.468Z,95.29
2023-02-26T02:08:52.462Z,95.60
2023-02-26T02:09:52.443Z,95.29
2023-02-26T02:10:52.439Z,95.29
2023-02-26T02:12:00.006Z,94.86
2023-02-26T02:12:52.416Z,94.65
2023-02-26T02:13:52.406Z,94.90
2023-02-26T02:14:52.392Z,95.18
2023-02-26T02:15:52.382Z,95.07
2023-02-26T02:16:52.404Z,94.44
2023-02-26T02:17:52.356Z,95.39
2023-02-26T02:18:52.357Z,95.07
2023-02-26T02:19:52.348Z,95.50
2023-02-26T02:20:52.337Z,95.54
2023-02-26T02:21:52.326Z,95.64
2023-02-26T02:22:52.312Z,95.22
2023-02-26T02:23:52.300Z,95.39
2023-02-26T02:24:59.809Z,95.18
2023-02-26T02:25:52.273Z,95.43
2023-02-26T02:26:52.264Z,95.29
2023-02-26T02:27:52.274Z,95.18
2023-02-26T02:28:52.245Z,95.43
2023-02-26T02:29:52.239Z,95.86
2023-02-26T02:30:52.292Z,95.43
2023-02-26T02:31:52.438Z,95.22
2023-02-26T02:32:52.309Z,95.43
2023-02-26T02:33:52.192Z,95.81
2023-02-26T02:34:52.179Z,94.48
2023-02-26T02:35:52.166Z,93.79
2023-02-26T02:36:52.156Z,93.54
2023-02-26T02:37:52.161Z,93.54
2023-02-26T02:38:52.158Z,93.64
2023-02-26T02:39:52.139Z,94.27
2023-02-26T02:40:52.113Z,94.38
2023-02-26T02:41:52.105Z,93.85
2023-02-26T02:42:52.112Z,93.79
2023-02-26T02:43:52.081Z,93.85
2023-02-26T02:44:52.078Z,93.68
2023-02-26T02:45:52.085Z,93.26
2023-02-26T02:46:52.095Z,93.54
2023-02-26T02:47:52.041Z,94.27
2023-02-26T02:48:52.082Z,93.68
2023-02-26T02:49:52.036Z,93.85
2023-02-26T02:50:52.012Z,94.21
2023-02-26T02:51:52.003Z,94.21
2023-02-26T02:52:52.014Z,94.00
2023-02-26T02:53:51.984Z,94.00
2023-02-26T02:54:51.985Z,93.74
2023-02-26T02:55:51.958Z,94.80
2023-02-26T02:56:51.953Z,94.74
2023-02-26T02:57:51.937Z,94.70
2023-02-26T02:58:51.948Z,94.84
2023-02-26T02:59:51.933Z,95.01
2023-02-26T03:00:51.977Z,95.33
2023-02-26T03:01:51.897Z,95.43
2023-02-26T03:02:51.940Z,95.26
2023-02-26T03:03:51.880Z,94.74
2023-02-26T03:04:51.889Z,94.48
2023-02-26T03:05:51.868Z,94.32
2023-02-26T03:06:51.862Z,94.21
2023-02-26T03:07:51.831Z,93.89
2023-02-26T03:08:51.836Z,94.00
2023-02-26T03:09:51.824Z,93.68
2023-02-26T03:10:51.813Z,93.05
2023-02-26T03:11:51.796Z,93.37
2023-02-26T03:12:51.794Z,93.79
2023-02-26T03:13:51.783Z,93.57
2023-02-26T03:14:51.764Z,93.47
2023-02-26T03:15:51.762Z,93.68
2023-02-26T03:16:51.865Z,93.57
2023-02-26T03:17:51.730Z,92.94
2023-02-26T03:18:51.726Z,92.63
2023-02-26T03:19:51.745Z,93.26
2023-02-26T03:20:51.732Z,92.52
2023-02-26T03:21:51.692Z,92.83
2023-02-26T03:22:51.681Z,93.68
2023-02-26T03:23:51.669Z,93.37
2023-02-26T03:24:51.679Z,93.37
2023-02-26T03:25:51.651Z,93.51
2023-02-26T03:26:51.662Z,94.25
2023-02-26T03:27:51.630Z,94.15
2023-02-26T03:28:51.622Z,94.15
2023-02-26T03:29:51.701Z,94.04
2023-02-26T03:30:51.656Z,93.93
2023-02-26T03:31:51.669Z,94.10
2023-02-26T03:32:51.592Z,94.68
2023-02-26T03:33:51.566Z,94.64
2023-02-26T03:34:51.561Z,94.84
2023-02-26T03:35:51.568Z,94.89
2023-02-26T03:36:51.581Z,94.46
2023-02-26T03:37:51.527Z,94.57
2023-02-26T03:38:51.562Z,94.74
2023-02-26T03:39:51.508Z,95.10
2023-02-26T03:40:51.512Z,94.99
2023-02-26T03:41:51.484Z,95.10
2023-02-26T03:42:51.479Z,95.52
2023-02-26T03:43:51.468Z,94.82
2023-02-26T03:44:51.464Z,95.56
2023-02-26T03:45:51.508Z,95.56
2023-02-26T03:46:51.442Z,95.46
2023-02-26T03:47:51.422Z,95.78
2023-02-26T03:48:51.491Z,95.84
2023-02-26T03:49:51.431Z,95.56
2023-02-26T03:50:51.400Z,95.35
2023-02-26T03:51:51.392Z,95.46
2023-02-26T03:52:51.394Z,95.98
2023-02-26T03:53:51.361Z,95.46
2023-02-26T03:54:51.366Z,95.35
2023-02-26T03:55:51.348Z,95.14
2023-02-26T03:56:51.331Z,95.18
2023-02-26T03:57:51.333Z,95.50
2023-02-26T03:58:51.309Z,95.67
2023-02-26T03:59:51.298Z,95.92
2023-02-26T04:00:51.303Z,95.78
2023-02-26T04:01:51.274Z,95.82
2023-02-26T04:02:51.270Z,95.56
2023-02-26T04:03:51.278Z,95.50
2023-02-26T04:04:51.248Z,94.97
2023-02-26T04:05:51.236Z,95.07
2023-02-26T04:06:51.234Z,94.65
2023-02-26T04:07:51.231Z,95.07
2023-02-26T04:08:51.234Z,94.65
2023-02-26T04:09:51.190Z,95.39
2023-02-26T04:10:51.182Z,95.61
2023-02-26T04:11:51.173Z,95.23
2023-02-26T04:12:51.161Z,94.45
2023-02-26T04:13:51.158Z,95.65
2023-02-26T04:14:51.151Z,95.86
2023-02-26T04:15:51.134Z,94.65
2023-02-26T04:16:51.147Z,94.81
2023-02-26T04:17:51.113Z,95.65
2023-02-26T04:18:51.097Z,95.39
2023-02-26T04:19:51.094Z,95.01
2023-02-26T04:20:51.088Z,94.87
2023-02-26T04:21:51.067Z,94.45
2023-02-26T04:22:51.059Z,94.34
2023-02-26T04:23:51.154Z,94.45
2023-02-26T04:24:51.055Z,94.13
2023-02-26T04:25:51.019Z,94.06
2023-02-26T04:26:51.020Z,93.81
2023-02-26T04:27:50.996Z,93.96
2023-02-26T04:28:50.988Z,93.74
2023-02-26T04:29:50.993Z,93.37
2023-02-26T04:30:51.115Z,93.96
2023-02-26T04:31:51.152Z,93.26
2023-02-26T04:32:50.960Z,93.74
2023-02-26T04:33:50.940Z,94.10
2023-02-26T04:34:50.922Z,94.27
2023-02-26T04:35:50.925Z,93.74
2023-02-26T04:36:50.901Z,93.79
2023-02-26T04:37:50.900Z,93.68
2023-02-26T04:38:50.880Z,93.89
2023-02-26T04:39:50.875Z,93.47
2023-02-26T04:40:50.876Z,93.37
2023-02-26T04:41:50.862Z,93.47
2023-02-26T04:42:50.835Z,93.37
2023-02-26T04:43:50.825Z,93.83
2023-02-26T04:44:50.831Z,94.21
2023-02-26T04:45:50.912Z,94.00
2023-02-26T04:46:50.793Z,94.04
2023-02-26T04:47:50.779Z,94.04
2023-02-26T04:48:50.770Z,95.06
2023-02-26T04:49:50.764Z,94.46
2023-02-26T04:50:50.768Z,93.73
2023-02-26T04:51:50.781Z,93.51
2023-02-26T04:52:50.728Z,93.41
2023-02-26T04:53:50.716Z,93.51
2023-02-26T04:54:50.717Z,93.89
2023-02-26T04:55:52.352Z,94.46
2023-02-26T04:56:50.714Z,93.83
2023-02-26T04:57:50.692Z,93.83
2023-02-26T04:58:50.670Z,94.04
2023-02-26T04:59:50.675Z,94.15
2023-02-26T05:00:50.652Z,94.25
2023-02-26T05:01:50.733Z,94.09
2023-02-26T05:02:50.621Z,93.98
2023-02-26T05:03:50.625Z,95.21
2023-02-26T05:04:50.629Z,94.57
2023-02-26T05:05:50.616Z,95.10
2023-02-26T05:06:50.578Z,94.89
2023-02-26T05:07:50.577Z,94.89
2023-02-26T05:08:50.563Z,94.89
2023-02-26T05:09:50.566Z,95.31
2023-02-26T05:10:50.546Z,94.89
2023-02-26T05:11:50.546Z,94.82
2023-02-26T05:12:50.566Z,95.21
2023-02-26T05:13:50.511Z,95.21
2023-02-26T05:14:50.502Z,95.25
2023-02-26T05:15:50.535Z,94.93
2023-02-26T05:16:50.492Z,94.89
2023-02-26T05:17:50.476Z,95.31
2023-02-26T05:18:50.464Z,94.68
2023-02-26T05:19:50.448Z,94.29
2023-02-26T05:20:50.436Z,94.76
2023-02-26T05:21:50.450Z,93.98
2023-02-26T05:22:50.418Z,94.40
2023-02-26T05:23:50.403Z,94.57
2023-02-26T05:24:50.392Z,94.51
2023-02-26T05:25:50.385Z,94.51
2023-02-26T05:26:50.387Z,93.87
2023-02-26T05:27:50.370Z,94.51
2023-02-26T05:28:50.370Z,94.93
2023-02-26T05:29:50.340Z,94.98
2023-02-26T05:30:50.375Z,94.82
2023-02-26T05:31:50.403Z,94.98
2023-02-26T05:32:50.319Z,95.08
2023-02-26T05:33:50.320Z,95.18
2023-02-26T05:34:50.286Z,94.76
2023-02-26T05:35:50.294Z,94.65
2023-02-26T05:36:50.268Z,94.13
2023-02-26T05:37:50.265Z,94.02
2023-02-26T05:38:50.245Z,93.98
2023-02-26T05:39:50.250Z,94.34
2023-02-26T05:40:50.223Z,94.55
2023-02-26T05:41:50.213Z,94.45
2023-02-26T05:42:50.210Z,94.27
2023-02-26T05:43:50.208Z,93.80
2023-02-26T05:44:50.213Z,95.29
2023-02-26T05:45:50.169Z,94.76
2023-02-26T05:46:50.283Z,94.87
2023-02-26T05:47:50.154Z,94.38
2023-02-26T05:48:50.155Z,94.23
2023-02-26T05:49:50.133Z,94.55
2023-02-26T05:50:50.135Z,94.55
2023-02-26T05:51:50.108Z,94.45
2023-02-26T05:52:50.095Z,94.34
2023-02-26T05:53:50.090Z,94.02
2023-02-26T05:54:50.106Z,94.45
2023-02-26T05:55:50.067Z,94.45
2023-02-26T05:56:50.063Z,94.23
2023-02-26T05:57:50.044Z,94.70
2023-02-26T05:58:50.030Z,95.82
2023-02-26T05:59:50.023Z,95.87
2023-02-26T06:00:50.040Z,95.40
2023-02-26T06:01:50.032Z,95.18
2023-02-26T06:02:49.994Z,95.02
2023-02-26T06:03:49.982Z,95.02
2023-02-26T06:04:49.975Z,95.02
2023-02-26T06:05:49.970Z,95.06
2023-02-26T06:06:49.945Z,95.91
2023-02-26T06:07:49.968Z,96.37
2023-02-26T06:08:49.932Z,95.70
2023-02-26T06:09:49.915Z,96.33
2023-02-26T06:10:49.904Z,95.70
2023-02-26T06:11:49.913Z,96.23
2023-02-26T06:12:49.891Z,95.84
2023-02-26T06:13:49.874Z,95.91
2023-02-26T06:14:49.872Z,96.69
2023-02-26T06:15:49.856Z,97.22
2023-02-26T06:16:49.868Z,97.06
2023-02-26T06:17:49.844Z,97.12
2023-02-26T06:18:49.820Z,97.12
2023-02-26T06:19:49.811Z,96.91
2023-02-26T06:20:49.827Z,97.22
2023-02-26T06:21:49.804Z,96.16
2023-02-26T06:22:49.783Z,96.00
2023-02-26T06:23:49.782Z,95.89
2023-02-26T06:24:49.761Z,95.78
2023-02-26T06:25:49.750Z,95.74
2023-02-26T06:26:49.754Z,96.37
2023-02-26T06:27:49.747Z,97.22
2023-02-26T06:28:49.725Z,97.27
2023-02-26T06:29:49.710Z,96.69
2023-02-26T06:30:49.711Z,96.16
2023-02-26T06:31:49.768Z,96.37
2023-02-26T06:32:49.724Z,95.74
2023-02-26T06:33:49.683Z,95.84
2023-02-26T06:34:49.668Z,95.74
2023-02-26T06:35:49.655Z,95.95
2023-02-26T06:36:49.668Z,96.16
2023-02-26T06:37:49.642Z,95.84
2023-02-26T06:38:49.634Z,95.74
2023-02-26T06:39:49.617Z,95.95
2023-02-26T06:40:49.608Z,96.10
2023-02-26T06:41:49.604Z,95.95
2023-02-26T06:42:49.591Z,96.10
2023-02-26T06:43:49.574Z,96.00
2023-02-26T06:44:49.584Z,95.78
2023-02-26T06:45:49.660Z,95.95
2023-02-26T06:46:49.544Z,96.27
2023-02-26T06:47:49.532Z,95.89
2023-02-26T06:48:49.538Z,96.16
2023-02-26T06:49:49.523Z,96.37
2023-02-26T06:50:49.523Z,96.27
2023-02-26T06:51:49.493Z,96.06
2023-02-26T06:52:49.484Z,96.37
2023-02-26T06:53:49.471Z,96.42
2023-02-26T06:54:49.458Z,96.10
2023-02-26T06:55:49.472Z,95.84
2023-02-26T06:56:49.453Z,95.95
2023-02-26T06:57:49.433Z,95.36
2023-02-26T06:58:49.419Z,95.74
2023-02-26T06:59:49.453Z,95.84
2023-02-26T07:00:49.418Z,96.27
2023-02-26T07:01:49.406Z,95.95
2023-02-26T07:02:49.396Z,95.91
2023-02-26T07:03:49.367Z,96.12
2023-02-26T07:04:49.397Z,95.63
2023-02-26T07:05:49.395Z,95.74
2023-02-26T07:06:49.365Z,95.91
2023-02-26T07:07:49.331Z,95.53
2023-02-26T07:08:49.371Z,96.37
2023-02-26T07:09:49.309Z,95.17
2023-02-26T07:10:49.304Z,95.10
2023-02-26T07:11:49.286Z,95.84
2023-02-26T07:12:49.273Z,95.17
2023-02-26T07:13:49.268Z,94.85
2023-02-26T07:14:49.293Z,94.70
2023-02-26T07:15:49.243Z,94.17
2023-02-26T07:16:49.259Z,94.21
2023-02-26T07:17:49.224Z,93.96
2023-02-26T07:18:49.273Z,93.53
2023-02-26T07:19:49.234Z,93.53
2023-02-26T07:20:49.251Z,92.90
2023-02-26T07:21:49.182Z,93.43
2023-02-26T07:22:49.182Z,93.85
2023-02-26T07:23:49.163Z,93.74
2023-02-26T07:24:49.147Z,93.21
2023-02-26T07:25:49.142Z,92.36
2023-02-26T07:26:49.139Z,93.00
2023-02-26T07:27:49.122Z,93.32
2023-02-26T07:28:49.119Z,93.00
2023-02-26T07:29:49.101Z,93.15
2023-02-26T07:30:49.185Z,93.21
2023-02-26T07:31:49.160Z,93.11
2023-02-26T07:32:49.081Z,92.64
2023-02-26T07:33:49.074Z,92.26
2023-02-26T07:34:49.059Z,92.11
2023-02-26T07:35:49.039Z,92.68
2023-02-26T07:36:49.059Z,92.75
2023-02-26T07:37:49.033Z,92.22
2023-02-26T07:38:49.014Z,92.32
2023-02-26T07:39:48.999Z,92.11
2023-02-26T07:40:48.983Z,92.22
2023-02-26T07:41:48.978Z,92.43
2023-02-26T07:42:49.058Z,92.11
2023-02-26T07:43:48.957Z,91.47
2023-02-26T07:44:48.950Z,91.16
2023-02-26T07:45:48.987Z,91.27
2023-02-26T07:46:48.921Z,91.61
2023-02-26T07:47:48.913Z,91.44
2023-02-26T07:48:48.909Z,91.01
2023-02-26T07:49:48.909Z,91.12
2023-02-26T07:50:48.886Z,91.05
2023-02-26T07:51:48.885Z,91.54
2023-02-26T07:52:48.890Z,91.33
2023-02-26T07:53:48.850Z,91.75
2023-02-26T07:54:48.834Z,91.29
2023-02-26T07:55:48.829Z,91.61
2023-02-26T07:56:48.830Z,91.01
2023-02-26T07:57:48.806Z,90.76
2023-02-26T07:58:48.848Z,90.62
2023-02-26T07:59:48.792Z,91.33
2023-02-26T08:00:48.774Z,90.95
2023-02-26T08:01:48.853Z,90.59
2023-02-26T08:02:48.777Z,90.91
2023-02-26T08:03:48.770Z,91.33
2023-02-26T08:04:48.753Z,91.16
2023-02-26T08:05:48.730Z,91.54
2023-02-26T08:06:48.712Z,91.61
2023-02-26T08:07:48.710Z,91.39
2023-02-26T08:08:48.733Z,90.97
2023-02-26T08:09:48.689Z,91.08
2023-02-26T08:10:48.684Z,91.50
2023-02-26T08:11:48.668Z,91.50
2023-02-26T08:12:48.650Z,92.45
2023-02-26T08:13:48.652Z,91.18
2023-02-26T08:14:48.646Z,90.86
2023-02-26T08:15:48.658Z,90.76
2023-02-26T08:16:48.620Z,91.12
2023-02-26T08:17:48.612Z,90.80
2023-02-26T08:18:48.589Z,91.61
2023-02-26T08:19:48.584Z,91.82
2023-02-26T08:20:48.588Z,91.71
2023-02-26T08:21:50.020Z,90.86
2023-02-26T08:22:48.553Z,90.76
2023-02-26T08:23:48.543Z,90.72
2023-02-26T08:24:48.549Z,90.93
2023-02-26T08:25:48.525Z,90.93
2023-02-26T08:26:48.519Z,90.97
2023-02-26T08:27:48.514Z,89.81
2023-02-26T08:28:48.530Z,90.08
2023-02-26T08:29:48.492Z,89.87
2023-02-26T08:30:48.508Z,89.76
2023-02-26T08:31:48.634Z,89.55
2023-02-26T08:32:48.539Z,89.13
2023-02-26T08:33:48.447Z,89.66
2023-02-26T08:34:48.424Z,90.78
2023-02-26T08:35:48.414Z,89.51
2023-02-26T08:36:48.403Z,88.77
2023-02-26T08:37:48.410Z,88.03
2023-02-26T08:38:48.400Z,88.88
2023-02-26T08:39:48.372Z,89.40
2023-02-26T08:40:48.383Z,88.62
2023-02-26T08:41:48.392Z,89.69
2023-02-26T08:42:48.343Z,90.15
2023-02-26T08:43:48.343Z,91.27
2023-02-26T08:44:48.365Z,90.32
2023-02-26T08:45:48.309Z,89.47
2023-02-26T08:46:48.349Z,89.89
2023-02-26T08:47:56.732Z,88.67
2023-02-26T08:48:49.291Z,89.13
2023-02-26T08:49:48.268Z,89.51
2023-02-26T08:50:48.281Z,89.87
2023-02-26T08:51:48.266Z,89.87
2023-02-26T08:52:48.233Z,90.04
2023-02-26T08:53:48.228Z,90.36
2023-02-26T08:54:48.218Z,90.36
2023-02-26T08:55:48.206Z,88.88
2023-02-26T08:56:48.213Z,88.45
2023-02-26T08:57:48.194Z,88.77
2023-02-26T08:58:48.170Z,88.67
2023-02-26T08:59:48.182Z,89.51
2023-02-26T09:00:48.146Z,88.98
2023-02-26T09:01:48.169Z,88.20
2023-02-26T09:02:48.179Z,88.03
2023-02-26T09:03:48.127Z,88.62
2023-02-26T09:04:48.106Z,89.05
2023-02-26T09:05:48.111Z,87.78
2023-02-26T09:06:48.086Z,88.48
2023-02-26T09:07:48.086Z,86.19
2023-02-26T09:08:48.110Z,86.58
2023-02-26T09:09:48.069Z,87.49
2023-02-26T09:10:48.052Z,86.26
2023-02-26T09:11:48.042Z,85.66
2023-02-26T09:12:48.091Z,85.35
2023-02-26T09:13:48.043Z,84.82
2023-02-26T09:14:48.014Z,85.35
2023-02-26T09:15:47.995Z,85.46
2023-02-26T09:16:50.639Z,85.63
2023-02-26T09:17:47.994Z,84.99
2023-02-26T09:18:47.965Z,86.26
2023-02-26T09:19:47.964Z,86.75
2023-02-26T09:20:47.976Z,85.23
2023-02-26T09:21:47.930Z,85.09
2023-02-26T09:22:47.922Z,84.39
2023-02-26T09:23:47.904Z,84.39
2023-02-26T09:24:47.931Z,82.91
2023-02-26T09:25:47.896Z,83.79
2023-02-26T09:26:47.887Z,83.69
2023-02-26T09:27:47.863Z,83.37
2023-02-26T09:28:47.894Z,84.11
2023-02-26T09:29:47.847Z,84.60
2023-02-26T09:30:47.877Z,84.60
2023-02-26T09:31:48.002Z,84.04
2023-02-26T09:32:47.895Z,83.94
2023-02-26T09:33:47.818Z,84.36
2023-02-26T09:34:47.791Z,84.42
2023-02-26T09:35:47.799Z,84.91
2023-02-26T09:36:47.770Z,84.81
2023-02-26T09:37:47.762Z,83.01
2023-02-26T09:38:47.754Z,83.65
2023-02-26T09:39:47.734Z,83.72
2023-02-26T09:40:47.726Z,83.72
2023-02-26T09:41:47.726Z,83.72
2023-02-26T09:42:47.718Z,81.01
2023-02-26T09:43:47.756Z,80.58
2023-02-26T09:44:47.714Z,81.36
2023-02-26T09:45:47.712Z,82.13
2023-02-26T09:46:47.668Z,81.82
2023-02-26T09:47:47.667Z,82.17
2023-02-26T09:48:47.652Z,80.97
2023-02-26T09:49:47.644Z,81.64
2023-02-26T09:50:47.761Z,81.32
2023-02-26T09:51:50.023Z,82.38
2023-02-26T09:52:47.602Z,82.17
2023-02-26T09:53:47.605Z,81.68
2023-02-26T09:54:47.589Z,81.89
2023-02-26T09:55:47.640Z,82.59
2023-02-26T09:56:47.589Z,82.24
2023-02-26T09:57:47.546Z,81.50
2023-02-26T09:58:47.541Z,81.29
2023-02-26T09:59:47.538Z,80.27
2023-02-26T10:00:47.540Z,81.43
2023-02-26T10:01:47.529Z,81.85
2023-02-26T10:02:47.513Z,81.04
2023-02-26T10:03:47.585Z,81.43
2023-02-26T10:04:47.490Z,81.12
2023-02-26T10:05:47.464Z,80.80
2023-02-26T10:06:47.456Z,81.01
2023-02-26T10:07:47.445Z,80.73
2023-02-26T10:08:47.443Z,80.30
2023-02-26T10:09:47.442Z,79.32
2023-02-26T10:10:47.418Z,79.74
2023-02-26T10:11:47.402Z,79.85
2023-02-26T10:12:47.395Z,79.28
2023-02-26T10:13:57.031Z,78.22
2023-02-26T10:14:48.410Z,79.07
2023-02-26T10:15:47.360Z,77.52
2023-02-26T10:16:47.462Z,79.53
2023-02-26T10:17:47.343Z,79.39
2023-02-26T10:18:47.331Z,79.28
2023-02-26T10:19:47.317Z,79.07
2023-02-26T10:20:47.412Z,77.17
2023-02-26T10:21:47.334Z,76.54
2023-02-26T10:22:48.683Z,74.32
2023-02-26T10:23:47.274Z,75.24
2023-02-26T10:24:47.268Z,75.59
2023-02-26T10:25:47.253Z,73.52
2023-02-26T10:26:47.270Z,73.55
2023-02-26T10:27:47.243Z,73.76
2023-02-26T10:28:48.657Z,75.52
2023-02-26T10:29:47.210Z,74.26
2023-02-26T10:30:47.208Z,74.15
2023-02-26T10:31:47.277Z,73.83
2023-02-26T10:32:47.337Z,75.38
2023-02-26T10:33:47.178Z,74.74
2023-02-26T10:34:47.165Z,75.10
2023-02-26T10:35:47.150Z,73.87
2023-02-26T10:36:47.136Z,73.83
2023-02-26T10:37:47.130Z,73.31
2023-02-26T10:38:47.137Z,72.96
2023-02-26T10:39:47.101Z,73.03
2023-02-26T10:40:47.096Z,73.39
2023-02-26T10:41:47.097Z,74.27
2023-02-26T10:42:47.074Z,71.42
2023-02-26T10:43:47.061Z,73.94
2023-02-26T10:44:47.068Z,73.28
2023-02-26T10:45:47.081Z,74.37
2023-02-26T10:46:47.034Z,72.38
2023-02-26T10:47:47.012Z,71.46
2023-02-26T10:48:47.049Z,71.15
2023-02-26T10:49:47.015Z,72.02
2023-02-26T10:50:46.995Z,71.63
2023-02-26T10:51:46.982Z,71.38
2023-02-26T10:52:46.966Z,71.83
2023-02-26T10:53:46.950Z,72.53
2023-02-26T10:54:46.965Z,72.00
2023-02-26T10:55:46.936Z,73.20
2023-02-26T10:56:46.923Z,73.52
2023-02-26T10:57:46.916Z,73.30
2023-02-26T10:58:46.907Z,72.88
2023-02-26T10:59:46.886Z,72.88
2023-02-26T11:00:46.900Z,72.64
2023-02-26T11:01:46.913Z,72.42
2023-02-26T11:02:46.907Z,71.80
2023-02-26T11:03:46.857Z,72.96
2023-02-26T11:04:50.158Z,73.63
2023-02-26T11:05:47.827Z,71.94
2023-02-26T11:06:46.837Z,70.53
2023-02-26T11:07:46.807Z,70.77
2023-02-26T11:08:46.801Z,72.35
2023-02-26T11:09:46.818Z,73.52
2023-02-26T11:10:46.787Z,74.04
2023-02-26T11:11:46.778Z,74.11
2023-02-26T11:12:46.774Z,73.48
2023-02-26T11:13:46.751Z,74.04
2023-02-26T11:14:46.740Z,73.58
2023-02-26T11:15:46.780Z,73.58
2023-02-26T11:16:46.726Z,73.06
2023-02-26T11:17:46.718Z,72.00
2023-02-26T11:18:46.703Z,71.09
2023-02-26T11:19:46.688Z,71.01
2023-02-26T11:20:46.713Z,70.67
2023-02-26T11:21:46.691Z,71.75
2023-02-26T11:22:46.659Z,72.46
2023-02-26T11:23:46.644Z,72.39
2023-02-26T11:24:46.641Z,72.04
2023-02-26T11:25:46.624Z,71.41
2023-02-26T11:26:46.623Z,70.77
2023-02-26T11:27:46.628Z,70.53
2023-02-26T11:28:54.113Z,70.00
2023-02-26T11:29:46.582Z,68.00
2023-02-26T11:30:46.742Z,67.76
2023-02-26T11:31:46.685Z,67.76
2023-02-26T11:32:54.073Z,69.37
2023-02-26T11:33:46.572Z,67.93
2023-02-26T11:34:46.552Z,67.36
2023-02-26T11:35:54.061Z,65.89
2023-02-26T11:36:54.037Z,63.54
2023-02-26T11:37:54.080Z,65.12
2023-02-26T11:38:46.491Z,64.75
2023-02-26T11:39:46.488Z,63.17
2023-02-26T11:40:53.988Z,64.93
2023-02-26T11:41:46.457Z,66.12
2023-02-26T11:42:46.445Z,68.01
2023-02-26T11:43:46.434Z,68.88
2023-02-26T11:44:46.437Z,70.12
2023-02-26T11:45:46.425Z,68.57
2023-02-26T11:46:46.404Z,66.56
2023-02-26T11:47:46.395Z,69.94
2023-02-26T11:48:46.394Z,70.86
2023-02-26T11:49:46.399Z,69.91
2023-02-26T11:50:46.363Z,65.17
2023-02-26T11:51:46.385Z,62.81
2023-02-26T11:52:46.343Z,62.38
2023-02-26T11:53:46.330Z,63.41
2023-02-26T11:54:46.327Z,66.46
2023-02-26T11:55:46.319Z,64.78
2023-02-26T11:56:46.317Z,63.83
2023-02-26T11:57:46.283Z,60.88
2023-02-26T11:58:46.282Z,61.30
2023-02-26T11:59:46.263Z,61.59
2023-02-26T12:00:46.267Z,60.11
2023-02-26T12:01:46.240Z,58.88
2023-02-26T12:02:46.353Z,58.35
2023-02-26T12:03:46.365Z,58.25
2023-02-26T12:04:46.223Z,57.51
2023-02-26T12:05:46.199Z,58.85
2023-02-26T12:06:46.225Z,58.14
2023-02-26T12:07:46.204Z,59.06
2023-02-26T12:08:46.175Z,59.14
2023-02-26T12:09:46.162Z,59.56
2023-02-26T12:10:46.149Z,56.64
2023-02-26T12:11:46.136Z,56.30
2023-02-26T12:12:46.157Z,56.17
2023-02-26T12:13:46.117Z,56.77
2023-02-26T12:14:46.109Z,57.22
2023-02-26T12:15:46.182Z,59.25
2023-02-26T12:16:46.085Z,60.19
2023-02-26T12:17:46.076Z,59.45
2023-02-26T12:18:46.109Z,58.72
2023-02-26T12:19:46.052Z,62.16
2023-02-26T12:20:46.050Z,61.32
2023-02-26T12:21:46.054Z,60.48
2023-02-26T12:22:46.040Z,58.98
2023-02-26T12:23:46.036Z,58.59
2023-02-26T12:24:47.673Z,56.62
2023-02-26T12:25:45.988Z,58.85
2023-02-26T12:26:45.996Z,61.27
2023-02-26T12:27:45.976Z,60.64
2023-02-26T12:28:45.961Z,66.12
2023-02-26T12:29:45.949Z,66.78
2023-02-26T12:30:45.981Z,64.54
2023-02-26T12:31:46.050Z,62.85
2023-02-26T12:32:46.012Z,62.43
2023-02-26T12:33:45.924Z,64.72
2023-02-26T12:34:45.901Z,67.80
2023-02-26T12:35:45.899Z,65.77
2023-02-26T12:36:49.277Z,64.29
2023-02-26T12:37:45.885Z,62.79
2023-02-26T12:38:45.858Z,60.43
2023-02-26T12:39:45.867Z,60.35
2023-02-26T12:40:45.839Z,60.57
2023-02-26T12:41:45.833Z,65.52
2023-02-26T12:42:45.827Z,66.46
2023-02-26T12:43:45.816Z,66.60
2023-02-26T12:44:45.796Z,66.28
2023-02-26T12:45:45.809Z,66.96
2023-02-26T12:46:45.857Z,67.24
2023-02-26T12:47:45.761Z,66.40
2023-02-26T12:48:45.758Z,67.27
2023-02-26T12:49:45.742Z,66.36
2023-02-26T12:50:45.733Z,63.28
2023-02-26T12:51:45.838Z,58.98
2023-02-26T12:52:45.712Z,59.14